Airfield :
LOGIN :

Register | Disclaimer

   EN    FR    IT 

 










Legend :    VFR   Marginal VFR   IFR   Intensive IFR   Very Intensive IFR
Visi :
Ceiling :
>= 8 km
>= 3000ft
5 to 8 km
1000 to 3000 ft
1500m to 5 km
500 to 1000 ft
800 to 1500m
200 to 500 ft
< 800m
< 200 ft
Symbols :   Thunderstorms  Fog  Heavy snow  Heavy precipitations  Wind > 20 kt
SIGMETs :     Misc.  Thunderstorms  Icing  Turbulence  Mountain Waves  Volcanic Ashes







- Airport Elevation : 202 ft
- IATA code : SQZ


EGXP - RAF Scampton

CURRENT METAR :
  • 151650Z AUTO 06008KT 9999 // SCT004/// BKN021/// BKN048/// 10/10 Q1014

EXPIRED METARs :
  • 151550Z AUTO 04009KT 3300 // FEW004/// BKN008/// 10/10 Q1014
  • 151450Z AUTO 04010KT 8000 // BKN004/// 10/10 Q1014

TAF TAF EGXP
Valid from the 15 at 12:00 until the 15 at 18:00 UTC


151038Z 1512/1518 01012KT 9999 BKN004
TEMPO 1512/1518 BKN006
PROB40 1512/1518 SCT010 BKN035
PROB40
TEMPO 1512/1518 2000 DZ
No reported NOTAMs for that airfield.



MET'MAP, your aeronautical weather chart ! - Copyright ORBIFLY December 2007 - Disclaimer

ORBIFLY MET'MAP TEAM :

Programming & Development : Alexandra Zaïnal
Concept & Development : Baudouin d'Aumeries
Co-Development & Prog : Marc-Olivier Méhu
Technical & hardware support : Manuel Goepfert

Contact : metmap@orbifly.com




SOURCES & CREDITS :

   NOAA